Time;durP1;ratioP1;P1;durP2;ratioP2;P2;SDS_P1;SDS_P2;PMS_P1;PMS_P2;Temp;Humidity;BMP_temperature;BMP_pressure;BME280_temperature;BME280_humidity;BME280_pressure;Samples;Min_cycle;Max_cycle;Signal;HPM_P1;HPM_P2
2021/10/29 00:00:55;;;;;;;21.23;8.87;;;;;;;-145.69;100.00;72168.56;5073707;28;20221;-79
2021/10/29 00:03:22;;;;;;;21.00;9.00;;;;;;;-145.69;100.00;72196.44;5074158;28;20229;-79
2021/10/29 00:05:49;;;;;;;17.80;8.83;;;;;;;-145.69;100.00;72174.53;5074157;28;20230;-80
2021/10/29 00:08:15;;;;;;;17.40;8.47;;;;;;;-145.69;100.00;72188.47;5073955;28;20248;-79
2021/10/29 00:10:42;;;;;;;21.10;8.50;;;;;;;-145.69;100.00;72178.53;5073720;28;20268;-79
2021/10/29 00:13:09;;;;;;;24.23;9.10;;;;;;;-145.69;100.00;72166.56;5073862;28;20631;-79
2021/10/29 00:15:36;;;;;;;21.13;8.80;;;;;;;-145.69;100.00;72170.56;5073558;28;20543;-80
2021/10/29 00:18:04;;;;;;;20.00;8.43;;;;;;;-145.69;100.00;72170.56;5073685;28;20206;-80
2021/10/29 00:20:31;;;;;;;17.67;8.20;;;;;;;-145.69;100.00;72164.59;5073831;28;20206;-80
2021/10/29 00:22:57;;;;;;;17.33;8.07;;;;;;;-145.69;100.00;72162.59;5073714;28;20247;-80
2021/10/29 00:25:24;;;;;;;19.07;8.73;;;;;;;-145.69;100.00;72146.69;5073576;28;20676;-80
2021/10/29 00:27:50;;;;;;;19.93;8.73;;;;;;;-145.69;100.00;72170.56;5073194;28;20207;-80
2021/10/29 00:30:17;;;;;;;20.37;8.23;;;;;;;-145.69;100.00;72190.47;5073677;28;20652;-80
2021/10/29 00:32:44;;;;;;;17.20;8.50;;;;;;;-145.69;100.00;72186.47;5073810;28;20206;-79
2021/10/29 00:35:11;;;;;;;21.17;8.67;;;;;;;-145.69;100.00;72188.47;5073583;28;20199;-80
2021/10/29 00:37:39;;;;;;;22.10;8.17;;;;;;;-145.69;100.00;72208.38;5073359;28;20243;-80
2021/10/29 00:40:09;;;;;;;17.87;8.30;;;;;;;-145.69;100.00;72210.38;5073403;28;20198;-79
2021/10/29 00:42:35;;;;;;;19.87;9.33;;;;;;;-145.69;100.00;72230.25;5072974;28;20226;-79
2021/10/29 00:45:02;;;;;;;18.20;8.30;;;;;;;-145.69;100.00;72242.22;5073487;28;20203;-79
2021/10/29 00:47:28;;;;;;;18.67;8.53;;;;;;;-145.69;100.00;72226.28;5073208;28;20723;-79
2021/10/29 00:49:55;;;;;;;24.73;9.30;;;;;;;-145.69;100.00;72202.41;5073175;28;20203;-79
2021/10/29 00:52:23;;;;;;;20.83;8.60;;;;;;;-145.69;100.00;72210.38;5073146;28;20203;-79
2021/10/29 00:54:50;;;;;;;19.00;8.20;;;;;;;-145.69;100.00;72238.22;5073250;28;20289;-79
2021/10/29 00:57:16;;;;;;;20.10;8.63;;;;;;;-145.69;100.00;72240.22;5072883;28;20248;-79
2021/10/29 00:59:43;;;;;;;23.13;8.60;;;;;;;-145.69;100.00;72198.41;5073405;28;20202;-79
2021/10/29 01:02:10;;;;;;;17.90;7.97;;;;;;;-145.69;100.00;72214.34;5072788;28;20231;-79
2021/10/29 01:04:36;;;;;;;16.30;7.30;;;;;;;-145.69;100.00;72234.25;5073275;28;20199;-80
2021/10/29 01:07:03;;;;;;;20.23;8.03;;;;;;;-145.69;100.00;72252.16;5073118;28;20203;-79
2021/10/29 01:09:31;;;;;;;26.37;9.57;;;;;;;-145.69;100.00;72256.13;5073115;28;20198;-79
2021/10/29 01:11:58;;;;;;;32.90;11.47;;;;;;;-145.69;100.00;72230.25;5072888;28;20203;-79
2021/10/29 01:14:24;;;;;;;25.60;9.90;;;;;;;-145.69;100.00;72232.25;5082360;28;20561;-79
2021/10/29 01:16:51;;;;;;;20.90;8.87;;;;;;;-145.69;100.00;72266.09;5093127;28;20201;-79
2021/10/29 01:19:17;;;;;;;26.30;10.43;;;;;;;-145.69;100.00;72256.13;5093236;28;20202;-79
2021/10/29 01:21:45;;;;;;;24.00;9.10;;;;;;;-145.69;100.00;72278.03;5093252;28;20236;-79
2021/10/29 01:24:11;;;;;;;21.47;8.43;;;;;;;-145.69;100.00;72286.00;5093171;28;20205;-80
2021/10/29 01:26:38;;;;;;;22.67;9.10;;;;;;;-145.69;100.00;72282.00;5092912;28;20198;-79
2021/10/29 01:29:04;;;;;;;28.67;11.93;;;;;;;-145.69;100.00;72246.19;5093056;28;20198;-80
2021/10/29 01:31:31;;;;;;;27.17;10.73;;;;;;;-145.69;100.00;72232.25;5093153;28;20229;-80
2021/10/29 01:33:57;;;;;;;22.50;9.33;;;;;;;-145.69;100.00;72254.16;5093154;28;20198;-79
2021/10/29 01:36:24;;;;;;;26.53;10.97;;;;;;;-145.69;100.00;72242.22;5093060;28;20259;-80
2021/10/29 01:38:52;;;;;;;26.43;10.03;;;;;;;-145.69;100.00;72254.16;5092781;28;20205;-80
2021/10/29 01:41:19;;;;;;;27.77;10.33;;;;;;;-145.69;100.00;72252.16;5095421;28;20318;-79
2021/10/29 01:43:47;;;;;;;26.07;11.10;;;;;;;-145.69;100.00;72246.19;5097013;28;20202;-79
2021/10/29 01:46:16;;;;;;;24.53;10.63;;;;;;;-145.69;100.00;72238.22;5096854;28;20263;-79
2021/10/29 01:48:43;;;;;;;25.93;10.83;;;;;;;-145.69;100.00;72214.34;5096818;28;20546;-79
2021/10/29 01:51:10;;;;;;;29.53;11.47;;;;;;;-145.69;100.00;72214.34;5096784;28;20206;-79
2021/10/29 01:53:37;;;;;;;25.80;10.90;;;;;;;-145.69;100.00;72222.31;5096777;28;20198;-79
2021/10/29 01:56:06;;;;;;;30.30;12.00;;;;;;;-145.69;100.00;72224.28;5096869;28;20209;-79
2021/10/29 01:58:33;;;;;;;26.57;10.77;;;;;;;-145.69;100.00;72188.47;5096371;28;20238;-79
2021/10/29 02:01:00;;;;;;;24.73;10.20;;;;;;;-145.69;100.00;72214.34;5096586;28;20209;-80
2021/10/29 02:03:27;;;;;;;21.40;9.30;;;;;;;-145.69;100.00;72238.22;5096482;28;20266;-79
2021/10/29 02:05:53;;;;;;;21.60;9.17;;;;;;;-145.69;100.00;72250.16;5096351;28;20205;-79
2021/10/29 02:08:23;;;;;;;22.57;8.57;;;;;;;-145.69;100.00;72278.03;5096501;28;20202;-80
2021/10/29 02:10:52;;;;;;;14.40;7.37;;;;;;;-145.69;100.00;72297.94;5096320;28;20206;-79
2021/10/29 02:13:21;;;;;;;17.20;7.43;;;;;;;-145.69;100.00;72289.97;5096270;28;20198;-79
2021/10/29 02:15:48;;;;;;;16.43;7.63;;;;;;;-145.69;100.00;72270.06;5096307;28;20194;-79
2021/10/29 02:18:14;;;;;;;21.07;8.80;;;;;;;-145.69;100.00;72270.06;5096260;28;20202;-79
2021/10/29 02:20:41;;;;;;;18.67;7.57;;;;;;;-145.69;100.00;72280.03;5096171;28;20261;-79
2021/10/29 02:23:07;;;;;;;15.97;7.30;;;;;;;-145.69;100.00;72301.91;5096008;28;20205;-80
2021/10/29 02:25:34;;;;;;;26.17;9.43;;;;;;;-145.69;100.00;72278.03;5096081;28;20206;-79
2021/10/29 02:28:00;;;;;;;23.17;8.47;;;;;;;-145.69;100.00;72284.00;5096032;28;20202;-79
2021/10/29 02:30:28;;;;;;;19.27;8.17;;;;;;;-145.69;100.00;72309.88;5096107;28;20259;-79
2021/10/29 02:32:55;;;;;;;14.73;6.67;;;;;;;-145.69;100.00;72351.66;5096170;28;20206;-79
2021/10/29 02:35:21;;;;;;;17.43;7.50;;;;;;;-145.69;100.00;72373.56;5095734;28;20656;-80
2021/10/29 02:37:48;;;;;;;15.83;6.23;;;;;;;-145.69;100.00;72381.53;5095817;28;20202;-79
2021/10/29 02:40:15;;;;;;;22.97;8.50;;;;;;;-145.69;100.00;72341.72;5095890;28;20197;-79
2021/10/29 02:42:41;;;;;;;21.63;8.47;;;;;;;-145.69;100.00;72329.78;5095708;28;20256;-79
2021/10/29 02:45:08;;;;;;;18.37;6.73;;;;;;;-145.69;100.00;72369.59;5095816;28;20194;-79
2021/10/29 02:47:36;;;;;;;22.43;7.30;;;;;;;-145.69;100.00;72361.63;5095445;28;20648;-79
2021/10/29 02:50:04;;;;;;;17.47;7.53;;;;;;;-145.69;100.00;72337.75;5095502;28;20213;-79
2021/10/29 02:52:30;;;;;;;16.20;7.43;;;;;;;-145.69;100.00;72341.72;5095339;28;20205;-80
2021/10/29 02:55:00;;;;;;;21.07;8.70;;;;;;;-145.69;100.00;72315.84;5095436;28;20206;-79
2021/10/29 02:57:29;;;;;;;16.77;6.97;;;;;;;-145.69;100.00;72333.75;5094804;28;20240;-79
2021/10/29 02:59:58;;;;;;;21.57;7.53;;;;;;;-145.69;100.00;72333.75;5095173;28;20198;-80
2021/10/29 03:02:25;;;;;;;18.60;6.77;;;;;;;-145.69;100.00;72355.66;5095000;28;20251;-80
2021/10/29 03:04:55;;;;;;;16.10;6.73;;;;;;;-145.69;100.00;72359.63;5095194;28;20198;-79
2021/10/29 03:07:22;;;;;;;17.80;6.50;;;;;;;-145.69;100.00;72367.59;5095194;28;20194;-79
2021/10/29 03:09:48;;;;;;;18.10;6.70;;;;;;;-145.69;100.00;72397.44;5091348;28;20671;-79
2021/10/29 03:12:15;;;;;;;20.27;6.50;;;;;;;-145.69;100.00;72405.41;5094794;28;20656;-80
2021/10/29 03:14:46;;;;;;;12.30;5.20;;;;;;;-145.69;100.00;72413.38;5094799;28;20202;-80
2021/10/29 03:17:14;;;;;;;14.63;5.20;;;;;;;-145.69;100.00;72415.38;5095042;28;20209;-79
2021/10/29 03:19:44;;;;;;;13.53;5.47;;;;;;;-145.69;100.00;72377.53;5095070;28;20208;-80
2021/10/29 03:22:20;;;;;;;17.83;6.17;;;;;;;-145.69;100.00;72351.66;5094867;28;20225;-79
2021/10/29 03:24:47;;;;;;;14.43;5.27;;;;;;;-145.69;100.00;72349.69;5094795;28;20656;-79
2021/10/29 03:27:13;;;;;;;16.33;5.90;;;;;;;-145.69;100.00;72365.59;5094561;28;20557;-79
2021/10/29 03:29:45;;;;;;;20.00;5.10;;;;;;;-145.69;100.00;72381.53;5094607;28;20560;-79
2021/10/29 03:32:14;;;;;;;11.80;4.83;;;;;;;-145.69;100.00;72393.47;5094624;28;20565;-79
2021/10/29 03:34:44;;;;;;;10.57;4.30;;;;;;;-145.69;100.00;72401.44;5094537;28;20205;-80
2021/10/29 03:37:23;;;;;;;7.53;3.43;;;;;;;-145.69;100.00;72433.28;5094466;28;20198;-79
2021/10/29 03:40:07;;;;;;;9.00;4.07;;;;;;;-145.69;100.00;72409.38;5094269;28;20229;-79
2021/10/29 03:42:41;;;;;;;8.27;4.23;;;;;;;-145.69;100.00;72417.34;5094041;28;20719;-80
2021/10/29 03:45:11;;;;;;;9.70;3.60;;;;;;;-145.69;100.00;72437.25;5094160;28;20198;-79
2021/10/29 03:47:43;;;;;;;7.47;3.50;;;;;;;-145.69;100.00;72417.34;5094316;28;20568;-78
2021/10/29 03:50:18;;;;;;;8.40;3.60;;;;;;;-145.69;100.00;72409.38;5094102;28;20204;-80
2021/10/29 03:52:56;;;;;;;9.07;3.73;;;;;;;-145.69;100.00;72437.25;5093901;28;20206;-79
2021/10/29 03:55:26;;;;;;;6.87;3.53;;;;;;;-145.69;100.00;72419.34;5094235;28;20562;-79
2021/10/29 03:57:54;;;;;;;12.43;3.80;;;;;;;-145.69;100.00;72409.38;5093782;28;20233;-79
2021/10/29 04:00:25;;;;;;;6.60;3.57;;;;;;;-145.69;100.00;72415.38;5093984;28;20198;-79
2021/10/29 04:02:54;;;;;;;7.57;3.43;;;;;;;-145.69;100.00;72393.47;5093098;28;20887;-79
2021/10/29 04:05:20;;;;;;;6.33;3.47;;;;;;;-145.69;100.00;72413.38;5094048;28;20198;-79
2021/10/29 04:07:48;;;;;;;12.40;4.23;;;;;;;-145.69;100.00;72409.38;5093942;28;20202;-79
2021/10/29 04:10:14;;;;;;;9.63;3.60;;;;;;;-145.69;100.00;72407.41;5093705;28;20198;-79
2021/10/29 04:12:43;;;;;;;15.07;4.37;;;;;;;-145.69;100.00;72397.44;5093815;28;20202;-79
2021/10/29 04:15:09;;;;;;;10.47;4.40;;;;;;;-145.69;100.00;72385.50;5093591;28;20198;-79
2021/10/29 04:17:38;;;;;;;8.00;3.60;;;;;;;-145.69;100.00;72375.56;5093868;28;20226;-79
2021/10/29 04:20:05;;;;;;;13.83;5.93;;;;;;;-145.69;100.00;72385.50;5093857;28;20202;-79
2021/10/29 04:22:31;;;;;;;9.07;3.50;;;;;;;-145.69;100.00;72383.53;5093482;28;20695;-79
2021/10/29 04:25:04;;;;;;;13.40;5.23;;;;;;;-145.69;100.00;72383.53;5093673;28;20652;-79
2021/10/29 04:27:32;;;;;;;16.43;6.73;;;;;;;-145.69;100.00;72343.72;5093485;28;20613;-78
2021/10/29 04:29:59;;;;;;;12.60;4.10;;;;;;;-145.69;100.00;72369.59;5093504;28;20652;-79
2021/10/29 04:32:29;;;;;;;6.83;3.13;;;;;;;-145.69;100.00;72377.53;5093548;28;20270;-78
2021/10/29 04:34:55;;;;;;;17.60;5.53;;;;;;;-145.69;100.00;72345.69;5093613;28;20238;-79
2021/10/29 04:37:24;;;;;;;19.83;7.40;;;;;;;-145.69;100.00;72319.81;5093402;28;20770;-78
2021/10/29 04:39:51;;;;;;;9.77;4.37;;;;;;;-145.69;100.00;72353.66;5093493;28;20201;-80
2021/10/29 04:42:20;;;;;;;7.37;2.87;;;;;;;-145.69;100.00;72389.50;5093177;28;20244;-79
2021/10/29 04:44:47;;;;;;;4.47;2.60;;;;;;;-145.69;100.00;72413.38;5093621;28;20229;-79
2021/10/29 04:47:16;;;;;;;6.57;2.63;;;;;;;-145.69;100.00;72441.25;5093415;28;20202;-79
2021/10/29 04:49:43;;;;;;;11.23;2.90;;;;;;;-145.69;100.00;72449.19;5093398;28;20198;-80
2021/10/29 04:52:09;;;;;;;5.80;2.63;;;;;;;-145.69;100.00;72453.19;5093446;28;20194;-79
2021/10/29 04:54:36;;;;;;;4.77;2.73;;;;;;;-145.69;100.00;72457.16;5093356;28;20202;-79
2021/10/29 04:57:03;;;;;;;7.63;3.13;;;;;;;-145.69;100.00;72459.16;5093205;28;20225;-79
2021/10/29 04:59:31;;;;;;;8.70;3.17;;;;;;;-145.69;100.00;72441.25;5093620;28;20215;-79
2021/10/29 05:02:00;;;;;;;9.67;3.20;;;;;;;-145.69;100.00;72427.31;5093248;28;20309;-79
2021/10/29 05:04:28;;;;;;;8.20;4.03;;;;;;;-145.69;100.00;72421.34;5093299;28;20205;-79
2021/10/29 05:06:55;;;;;;;5.57;3.10;;;;;;;-145.69;100.00;72429.28;5093167;28;20672;-79
2021/10/29 05:09:23;;;;;;;9.90;3.37;;;;;;;-145.69;100.00;72417.34;5092943;28;20201;-79
2021/10/29 05:11:52;;;;;;;7.03;3.20;;;;;;;-145.69;100.00;72429.28;5093141;28;20582;-79
2021/10/29 05:14:18;;;;;;;4.73;2.77;;;;;;;-145.69;100.00;72437.25;5093868;28;20194;-79
2021/10/29 05:16:46;;;;;;;8.47;3.30;;;;;;;-145.69;100.00;72425.31;5097497;28;20201;-78
2021/10/29 05:19:14;;;;;;;11.30;5.00;;;;;;;-145.69;100.00;72417.34;5094814;28;20209;-78
2021/10/29 05:21:43;;;;;;;33.83;9.63;;;;;;;-145.69;100.00;72375.56;5097645;28;20202;-78
2021/10/29 05:24:11;;;;;;;43.90;10.40;;;;;;;-145.69;100.00;72409.38;5097718;28;20221;-78
2021/10/29 05:26:40;;;;;;;20.17;5.83;;;;;;;-145.69;100.00;72403.41;5097476;28;20205;-79
2021/10/29 05:29:07;;;;;;;19.23;7.33;;;;;;;-145.69;100.00;72381.53;5096922;28;20203;-78
2021/10/29 05:31:34;;;;;;;33.03;10.73;;;;;;;-145.69;100.00;72333.75;5097138;28;20209;-78
2021/10/29 05:34:05;;;;;;;9.20;4.87;;;;;;;-145.69;100.00;72373.56;5097012;28;20533;-78
2021/10/29 05:36:32;;;;;;;42.13;16.10;;;;;;;-145.69;100.00;72385.50;5096896;28;20666;-78
2021/10/29 05:38:59;;;;;;;21.93;8.13;;;;;;;-145.69;100.00;72385.50;5097200;28;20280;-79
2021/10/29 05:41:28;;;;;;;14.97;5.90;;;;;;;-145.69;100.00;72373.56;5096733;28;20198;-79
2021/10/29 05:43:56;;;;;;;36.97;16.17;;;;;;;-145.69;100.00;72393.47;5096865;28;20230;-79
2021/10/29 05:46:27;;;;;;;15.70;6.17;;;;;;;-145.69;100.00;72409.38;5096978;28;20285;-79
2021/10/29 05:48:54;;;;;;;11.73;5.47;;;;;;;-145.69;100.00;72399.44;5096690;28;20202;-79
2021/10/29 05:51:23;;;;;;;11.83;6.50;;;;;;;-145.69;100.00;72403.41;5096671;28;20289;-79
2021/10/29 05:54:04;;;;;;;17.73;8.70;;;;;;;-145.69;100.00;72413.38;5096678;28;20198;-79
2021/10/29 05:56:31;;;;;;;16.20;7.20;;;;;;;-145.69;100.00;72397.44;5096464;28;20198;-79
2021/10/29 05:59:03;;;;;;;10.90;4.10;;;;;;;-145.69;100.00;72403.41;5096465;28;20596;-79
2021/10/29 06:01:33;;;;;;;12.73;5.13;;;;;;;-145.69;100.00;72391.47;5096418;28;20208;-79
2021/10/29 06:04:01;;;;;;;18.10;7.10;;;;;;;-145.69;100.00;72369.59;5096501;28;20228;-79
2021/10/29 06:06:29;;;;;;;22.87;8.83;;;;;;;-145.69;100.00;72317.84;5096039;28;20655;-79
2021/10/29 06:08:58;;;;;;;25.10;8.37;;;;;;;-145.69;100.00;72309.88;5096220;28;20298;-79
2021/10/29 06:11:29;;;;;;;26.07;10.17;;;;;;;-145.69;100.00;72278.03;5096031;28;20288;-79
2021/10/29 06:13:56;;;;;;;12.80;5.47;;;;;;;-145.69;100.00;72321.81;5096262;28;20194;-79
2021/10/29 06:16:23;;;;;;;14.17;5.57;;;;;;;-145.69;100.00;72341.72;5095743;28;20552;-79
2021/10/29 06:18:56;;;;;;;16.00;6.67;;;;;;;-145.69;100.00;72345.69;5096338;28;20202;-79
2021/10/29 06:21:31;;;;;;;25.53;7.47;;;;;;;-145.69;100.00;72286.00;5095950;28;20247;-79
2021/10/29 06:24:07;;;;;;;17.27;7.00;;;;;;;-145.69;100.00;72286.00;5095837;28;20256;-79
2021/10/29 06:26:43;;;;;;;16.70;5.73;;;;;;;-145.69;100.00;72309.88;5094874;28;20220;-79
2021/10/29 06:29:09;;;;;;;16.43;4.97;;;;;;;-145.69;100.00;72325.81;5096228;28;20225;-79
2021/10/29 06:31:36;;;;;;;9.23;4.87;;;;;;;-145.69;100.00;72321.81;5096158;28;20212;-79
2021/10/29 06:34:05;;;;;;;20.60;6.63;;;;;;;-145.69;100.00;72276.03;5095975;28;20248;-79
2021/10/29 06:36:32;;;;;;;18.70;7.90;;;;;;;-145.69;100.00;72236.22;5095643;28;20557;-79
2021/10/29 06:39:00;;;;;;;18.23;7.50;;;;;;;-145.69;100.00;72228.28;5095649;28;20198;-79
2021/10/29 06:41:30;;;;;;;18.17;7.67;;;;;;;-145.69;100.00;72212.34;5095773;28;20422;-80
2021/10/29 06:44:10;;;;;;;14.00;6.40;;;;;;;-145.69;100.00;72200.41;5095494;28;20232;-79
2021/10/29 06:46:45;;;;;;;9.73;5.17;;;;;;;-145.69;100.00;72220.31;5095415;28;20194;-80
2021/10/29 06:49:18;;;;;;;23.43;7.37;;;;;;;-145.69;100.00;72168.56;5095146;28;20202;-80
2021/10/29 06:52:19;;;;;;;19.57;6.30;;;;;;;-145.69;100.00;72156.63;5095857;28;20194;-80
2021/10/29 07:00:23;;;;;;;12.17;5.40;;;;;;;-145.69;100.00;72136.72;5095351;28;20205;-80
2021/10/29 07:41:43;;;;;;;15.77;4.90;;;;;;;-145.69;100.00;72019.31;5054280;28;20609;-80
2021/10/29 07:44:15;;;;;;;8.67;4.20;;;;;;;-145.69;100.00;72011.34;5054157;28;20322;-80
2021/10/29 07:46:43;;;;;;;9.23;5.33;;;;;;;-145.69;100.00;72009.34;5054195;28;20210;-81
2021/10/29 07:49:10;;;;;;;14.63;7.88;;;;;;;-145.69;100.00;71989.44;5053202;28;20440;-79
2021/10/29 07:51:38;;;;;;;13.67;6.67;;;;;;;-145.69;100.00;71975.50;5054038;28;20203;-81
2021/10/29 07:54:06;;;;;;;11.97;5.83;;;;;;;-145.69;100.00;71953.63;5053797;28;20249;-81
2021/10/29 07:56:32;;;;;;;11.53;6.93;;;;;;;-145.69;100.00;71929.75;5053652;28;20203;-81
2021/10/29 07:58:59;;;;;;;10.70;5.20;;;;;;;-145.69;100.00;71907.84;5053815;28;20227;-81
2021/10/29 08:01:26;;;;;;;12.70;7.53;;;;;;;-145.69;100.00;71903.88;5053882;28;20204;-82
2021/10/29 08:03:54;;;;;;;11.60;4.30;;;;;;;-145.69;100.00;71887.94;5053560;28;20227;-81
2021/10/29 08:06:20;;;;;;;7.20;4.07;;;;;;;-145.69;100.00;71880.00;5053724;28;20199;-83
2021/10/29 08:08:49;;;;;;;8.40;4.10;;;;;;;-145.69;100.00;71870.03;5053622;28;20230;-82
2021/10/29 08:11:16;;;;;;;8.17;4.20;;;;;;;-145.69;100.00;71856.09;5053759;28;20227;-82
2021/10/29 08:13:42;;;;;;;9.33;4.60;;;;;;;-145.69;100.00;71862.06;5053670;28;20199;-83
2021/10/29 08:16:09;;;;;;;8.53;4.00;;;;;;;-145.69;100.00;71844.16;5053993;28;20207;-84
2021/10/29 08:18:44;;;;;;;12.80;3.60;;;;;;;-145.69;100.00;71828.25;5073030;28;20225;-83
2021/10/29 08:21:18;;;;;;;7.20;4.07;;;;;;;-145.69;100.00;71800.38;5072897;28;20205;-84
2021/10/29 08:23:47;;;;;;;9.03;4.80;;;;;;;-145.69;100.00;71788.44;5073115;28;20581;-84
2021/10/29 08:26:16;;;;;;;7.87;4.20;;;;;;;-145.69;100.00;71768.53;5073310;28;20730;-83
2021/10/29 08:28:45;;;;;;;10.40;4.77;;;;;;;-145.69;100.00;71756.59;5053571;28;20286;-81
2021/10/29 08:31:12;;;;;;;10.73;4.37;;;;;;;-145.69;100.00;71756.59;5064832;28;20202;-80
2021/10/29 08:33:42;;;;;;;10.97;4.73;;;;;;;-145.69;100.00;71746.66;5072943;28;20207;-79
2021/10/29 08:36:10;;;;;;;12.60;4.93;;;;;;;-145.69;100.00;71740.69;5073254;28;20213;-79
2021/10/29 08:38:39;;;;;;;8.80;4.40;;;;;;;-145.69;100.00;71722.78;5073175;28;20226;-79
2021/10/29 08:41:05;;;;;;;8.03;4.30;;;;;;;-145.69;100.00;71716.81;5073266;28;20203;-79
2021/10/29 08:43:32;;;;;;;9.10;4.33;;;;;;;-145.69;100.00;71710.84;5072897;28;20275;-81
2021/10/29 08:45:59;;;;;;;8.83;4.30;;;;;;;-145.69;100.00;71700.88;5072871;28;20214;-79
2021/10/29 08:48:26;;;;;;;11.63;5.20;;;;;;;-145.69;100.00;71686.97;5073165;28;20206;-78
2021/10/29 08:50:55;;;;;;;9.43;4.77;;;;;;;-145.69;100.00;71682.97;5072779;28;20209;-78
2021/10/29 08:53:22;;;;;;;10.67;4.70;;;;;;;-145.69;100.00;71669.03;5073135;28;20213;-79
2021/10/29 08:55:50;;;;;;;10.77;5.50;;;;;;;-145.69;100.00;71643.19;5073062;28;20581;-81
2021/10/29 08:58:18;;;;;;;9.40;5.10;;;;;;;-145.69;100.00;71633.22;5072751;28;20226;-80
2021/10/29 09:00:46;;;;;;;7.43;3.73;;;;;;;-145.69;100.00;71631.25;5072689;28;20294;-80
2021/10/29 09:03:23;;;;;;;10.53;4.17;;;;;;;-145.69;100.00;71609.34;5088705;28;20217;-80
2021/10/29 09:06:01;;;;;;;9.17;4.40;;;;;;;-145.69;100.00;71605.38;5093164;28;20202;-80
2021/10/29 09:08:41;;;;;;;8.90;4.00;;;;;;;-145.69;100.00;71585.47;5093133;28;20271;-80
2021/10/29 09:31:28;;;;;;;51.00;21.13;;;;;;;-145.69;99.56;71434.22;5072550;28;20234;-82
2021/10/29 09:33:58;;;;;;;67.57;29.23;;;;;;;-145.69;100.00;71422.28;5072361;28;20219;-82
2021/10/29 09:36:27;;;;;;;16.70;6.90;;;;;;;-145.69;98.81;71404.38;5072536;28;20277;-81
2021/10/29 09:38:55;;;;;;;13.87;6.10;;;;;;;-145.69;100.00;71386.47;5071449;28;20203;-81
2021/10/29 09:41:23;;;;;;;27.63;12.00;;;;;;;-145.69;92.82;71362.59;5072415;28;20199;-80
2021/10/29 09:43:55;;;;;;;61.87;24.47;;;;;;;-145.69;92.01;71336.72;5072430;28;20321;-80
2021/10/29 09:46:30;;;;;;;22.90;9.50;;;;;;;-145.69;95.13;71326.78;5071189;28;20202;-80
2021/10/29 09:49:04;;;;;;;13.60;5.10;;;;;;;-145.69;96.94;71310.84;5072642;28;20201;-80
2021/10/29 09:51:35;;;;;;;10.23;5.28;;;;;;;-145.69;93.29;71310.84;5072604;28;20308;-80
2021/10/29 09:54:11;;;;;;;8.03;4.63;;;;;;;-145.69;89.76;71320.81;5072480;28;20289;-80
2021/10/29 09:56:46;;;;;;;10.63;5.40;;;;;;;-145.69;94.61;71330.75;5072309;28;20202;-80
2021/10/29 09:59:14;;;;;;;17.93;6.07;;;;;;;-145.69;89.79;71344.69;5072265;28;20230;-79
2021/10/29 10:01:43;;;;;;;9.80;5.13;;;;;;;-145.69;92.45;71344.69;5073662;28;20252;-79
2021/10/29 10:04:10;;;;;;;11.10;5.17;;;;;;;-145.69;89.30;71350.66;5075979;28;20234;-80
2021/10/29 10:06:41;;;;;;;14.82;5.35;;;;;;;-145.69;88.13;71354.63;5075841;28;20719;-80
2021/10/29 10:09:09;;;;;;;13.20;6.03;;;;;;;-145.69;89.17;71348.66;5075297;28;20199;-80
2021/10/29 10:11:39;;;;;;;9.20;4.87;;;;;;;-145.69;93.70;71350.66;5075926;28;20276;-80
2021/10/29 10:14:09;;;;;;;13.27;5.20;;;;;;;-145.69;90.56;71366.56;5075859;28;20202;-79
2021/10/29 10:16:40;;;;;;;10.88;5.40;;;;;;;-145.69;91.12;71358.63;5075098;28;20529;-78
2021/10/29 10:19:07;;;;;;;10.23;5.17;;;;;;;-145.69;89.72;71362.59;5075727;28;20624;-78
2021/10/29 10:21:39;;;;;;;16.20;5.00;;;;;;;-145.69;88.20;71346.69;5075702;28;20198;-78
2021/10/29 10:24:10;;;;;;;11.27;4.87;;;;;;;-145.69;88.74;71336.72;5075490;28;20313;-78
2021/10/29 10:27:02;;;;;;;9.87;5.07;;;;;;;-145.69;92.01;71330.75;5075738;28;20206;-78
2021/10/29 10:46:19;;;;;;;10.52;5.43;;;;;;;-145.69;87.68;71265.09;5075282;28;20201;-79
2021/10/29 10:48:54;;;;;;;11.18;5.80;;;;;;;-145.69;86.31;71249.19;5074709;28;20210;-79
2021/10/29 10:51:42;;;;;;;9.50;5.03;;;;;;;-145.69;90.20;71243.22;5075470;28;20199;-79
2021/10/29 10:54:16;;;;;;;12.40;5.82;;;;;;;-145.69;86.80;71229.28;5086943;28;20217;-79
2021/10/29 10:59:55;;;;;;;10.13;5.35;;;;;;;-145.69;86.21;71211.38;5095354;28;20240;-78
2021/10/29 11:03:10;;;;;;;9.10;5.50;;;;;;;-145.69;81.53;71191.47;5094263;28;20225;-79
2021/10/29 11:11:21;;;;;;;10.18;4.88;;;;;;;-145.69;81.00;71157.66;5151991;27;20203;-80
2021/10/29 11:13:57;;;;;;;8.90;4.50;;;;;;;-145.69;79.32;71139.75;5151748;27;20646;-80
2021/10/29 11:16:37;;;;;;;9.18;5.25;;;;;;;-145.69;77.24;71127.81;5152126;27;20528;-80
2021/10/29 11:19:11;;;;;;;8.55;4.95;;;;;;;-145.69;72.34;71115.88;5151518;27;20208;-80
2021/10/29 11:21:47;;;;;;;11.02;5.32;;;;;;;-145.69;76.79;71111.88;5151521;27;20287;-80
2021/10/29 11:24:17;;;;;;;8.05;4.80;;;;;;;-145.69;75.27;71105.91;5151536;27;20200;-80
2021/10/29 11:26:46;;;;;;;8.48;4.82;;;;;;;-145.69;74.81;71099.94;5151404;27;20227;-80
2021/10/29 11:29:13;;;;;;;9.00;5.22;;;;;;;-145.69;73.09;71097.97;5151789;27;20279;-80
2021/10/29 11:31:43;;;;;;;12.68;4.72;;;;;;;-145.69;69.97;71068.13;5151580;27;20231;-80
2021/10/29 11:34:13;;;;;;;10.63;4.40;;;;;;;-145.69;73.43;71060.16;5151678;27;20196;-80
2021/10/29 11:36:41;;;;;;;7.72;4.00;;;;;;;-145.69;67.46;71040.25;5151143;27;20196;-80
2021/10/29 11:39:13;;;;;;;8.30;4.43;;;;;;;-145.69;66.37;71032.28;5151290;27;20192;-80
2021/10/29 11:41:44;;;;;;;9.20;4.28;;;;;;;-145.69;65.34;71020.34;5151568;27;20203;-81
2021/10/29 11:44:12;;;;;;;6.30;3.63;;;;;;;-145.69;68.74;70996.47;5151576;27;20584;-80
2021/10/29 11:46:40;;;;;;;8.23;4.50;;;;;;;-145.69;62.07;70972.59;5151182;27;20311;-80
2021/10/29 11:49:09;;;;;;;14.10;5.18;;;;;;;-145.69;64.80;70972.59;5151366;27;20282;-80
2021/10/29 11:51:37;;;;;;;8.50;4.65;;;;;;;-145.69;68.45;70970.63;5151083;27;20204;-83
2021/10/29 11:54:12;;;;;;;9.95;4.22;;;;;;;-145.69;64.27;70946.75;5151161;27;20192;-80
2021/10/29 11:56:44;;;;;;;8.95;4.10;;;;;;;-145.69;62.65;70938.78;5151129;27;20253;-82
2021/10/29 11:59:31;;;;;;;8.88;4.63;;;;;;;-145.69;60.26;70924.84;5151255;27;20222;-79
2021/10/29 12:05:46;;;;;;;8.68;4.53;;;;;;;-145.69;62.39;70930.81;5150927;27;20256;-80
2021/10/29 12:07:34;;;;;;;7.25;3.95;;;;;;;-145.69;62.24;70897.00;5150651;27;20360;-80
2021/10/29 12:10:04;;;;;;;11.18;4.15;;;;;;;-145.69;58.38;70910.94;5150810;27;20214;-81
2021/10/29 12:12:35;;;;;;;7.82;4.03;;;;;;;-145.69;60.24;70897.00;5150591;27;20196;-80
2021/10/29 12:15:08;;;;;;;9.85;4.68;;;;;;;-145.69;59.10;70928.84;5150830;27;20197;-80
2021/10/29 12:17:44;;;;;;;8.57;4.28;;;;;;;-145.69;59.95;70928.84;5150559;27;20214;-80
2021/10/29 12:20:15;;;;;;;8.02;4.60;;;;;;;-145.69;62.83;70891.03;5136512;27;20223;-80
2021/10/29 12:22:44;;;;;;;5.80;3.33;;;;;;;-145.69;58.45;70877.09;5136824;27;20204;-78
2021/10/29 12:25:18;;;;;;;3.67;1.75;;;;;;;-145.69;50.10;70879.09;5136846;27;20639;-80
2021/10/29 12:27:49;;;;;;;7.22;2.65;;;;;;;-145.69;49.08;70871.13;5136699;27;20280;-78
2021/10/29 12:30:30;;;;;;;3.03;1.85;;;;;;;-145.69;48.54;70873.13;5136837;27;20287;-78
2021/10/29 12:52:51;;;;;;;3.15;1.80;;;;;;;-145.69;49.15;70863.19;5136195;27;20253;-80
2021/10/29 13:03:44;;;;;;;4.38;1.70;;;;;;;-145.69;50.77;70803.50;5152707;27;20291;-78
2021/10/29 13:06:14;;;;;;;3.78;1.75;;;;;;;-145.69;46.99;70803.50;5156550;27;20227;-80
2021/10/29 13:08:41;;;;;;;5.00;1.73;;;;;;;-145.69;47.91;70801.50;5156078;27;20228;-81
2021/10/29 13:11:12;;;;;;;3.92;1.67;;;;;;;-145.69;45.41;70797.53;5156681;27;20204;-81
2021/10/29 13:13:40;;;;;;;3.45;1.77;;;;;;;-145.69;46.30;70797.53;5156612;27;20222;-80
2021/10/29 13:16:10;;;;;;;2.40;1.70;;;;;;;-145.69;47.70;70805.47;5156350;27;20604;-80